createdAt,value
2022-12-04T00:01:20.577Z,63.50
2022-12-04T00:03:47.799Z,63.40
2022-12-04T00:06:19.298Z,63.50
2022-12-04T00:08:47.702Z,63.30
2022-12-04T00:11:17.116Z,63.20
2022-12-04T00:13:44.279Z,63.40
2022-12-04T00:16:17.738Z,63.60
2022-12-04T00:18:45.058Z,63.50
2022-12-04T00:21:14.247Z,63.60
2022-12-04T00:23:42.049Z,63.40
2022-12-04T00:26:12.388Z,63.50
2022-12-04T00:28:39.802Z,63.40
2022-12-04T00:31:08.411Z,63.50
2022-12-04T00:33:35.646Z,63.60
2022-12-04T00:36:05.247Z,63.80
2022-12-04T00:38:32.475Z,63.70
2022-12-04T00:41:00.859Z,63.50
2022-12-04T00:43:29.146Z,63.60
2022-12-04T00:45:56.426Z,63.50
2022-12-04T00:48:23.703Z,63.50
2022-12-04T00:50:50.535Z,63.30
2022-12-04T00:53:17.687Z,63.40
2022-12-04T00:55:44.570Z,63.50
2022-12-04T00:58:11.965Z,63.50
2022-12-04T01:00:40.827Z,64.60
2022-12-04T01:03:09.073Z,63.60
2022-12-04T01:05:45.135Z,63.50
2022-12-04T01:08:12.992Z,63.60
2022-12-04T01:10:41.688Z,64.20
2022-12-04T01:13:08.770Z,63.70
2022-12-04T01:15:39.529Z,63.90
2022-12-04T01:18:06.692Z,63.90
2022-12-04T01:20:33.852Z,63.90
2022-12-04T01:23:00.639Z,63.90
2022-12-04T01:25:27.438Z,63.90
2022-12-04T01:27:54.348Z,63.80
2022-12-04T01:30:21.379Z,63.90
2022-12-04T01:32:48.198Z,63.90
2022-12-04T01:35:15.050Z,63.80
2022-12-04T01:37:41.845Z,63.90
2022-12-04T01:40:14.111Z,63.80
2022-12-04T01:42:40.884Z,63.80
2022-12-04T01:45:43.941Z,64.10
2022-12-04T01:48:18.740Z,63.70
2022-12-04T01:50:47.435Z,63.70
2022-12-04T01:53:14.831Z,63.60
2022-12-04T01:55:42.360Z,63.70
2022-12-04T01:58:09.749Z,63.60
2022-12-04T02:00:36.776Z,63.70
2022-12-04T02:03:03.737Z,63.70
2022-12-04T02:05:30.595Z,63.70
2022-12-04T02:08:01.311Z,63.80
2022-12-04T02:10:51.601Z,63.90
2022-12-04T02:13:36.599Z,63.80
2022-12-04T02:16:28.838Z,63.80
2022-12-04T02:19:01.804Z,62.90
2022-12-04T02:21:38.579Z,63.80
2022-12-04T02:24:17.092Z,63.90
2022-12-04T02:26:52.891Z,64.60
2022-12-04T02:29:37.822Z,63.90
2022-12-04T02:32:22.466Z,63.90
2022-12-04T02:35:01.022Z,63.90
2022-12-04T02:37:37.740Z,64.00
2022-12-04T02:40:09.803Z,64.00
2022-12-04T02:42:58.203Z,63.90
2022-12-04T02:45:30.295Z,63.80
2022-12-04T02:48:01.019Z,63.90
2022-12-04T02:50:30.049Z,63.90
2022-12-04T02:53:07.503Z,63.80
2022-12-04T02:55:52.605Z,64.00
2022-12-04T02:58:29.207Z,63.90
2022-12-04T03:01:00.180Z,64.00
2022-12-04T03:03:30.446Z,64.00
2022-12-04T03:06:04.762Z,64.00
2022-12-04T03:08:55.059Z,64.00
2022-12-04T03:11:22.912Z,64.10
2022-12-04T03:14:00.771Z,64.10
2022-12-04T03:16:36.160Z,64.10
2022-12-04T03:19:10.607Z,64.20
2022-12-04T03:21:41.422Z,64.00
2022-12-04T03:24:23.986Z,64.00
2022-12-04T03:27:00.655Z,64.00
2022-12-04T03:29:42.866Z,64.00
2022-12-04T03:32:36.055Z,63.90
2022-12-04T03:35:15.053Z,64.10
2022-12-04T03:38:20.494Z,64.10
2022-12-04T03:41:03.473Z,65.00
2022-12-04T03:43:34.445Z,64.20
2022-12-04T03:46:24.411Z,64.10
2022-12-04T03:48:59.463Z,64.20
2022-12-04T03:51:30.425Z,64.00
2022-12-04T03:54:14.026Z,64.20
2022-12-04T03:56:47.399Z,64.40
2022-12-04T03:59:23.336Z,64.40
2022-12-04T04:01:52.257Z,64.40
2022-12-04T04:04:26.963Z,64.30
2022-12-04T04:06:59.086Z,64.50
2022-12-04T04:09:29.202Z,64.30
2022-12-04T04:12:03.278Z,63.10
2022-12-04T04:15:13.590Z,64.10
2022-12-04T04:18:02.452Z,64.10
2022-12-04T04:20:58.810Z,64.20
2022-12-04T04:23:52.354Z,64.10
2022-12-04T04:26:19.232Z,64.10
2022-12-04T04:28:46.346Z,64.30
2022-12-04T04:31:22.165Z,64.30
2022-12-04T04:34:03.331Z,64.30
2022-12-04T04:36:44.331Z,64.20
2022-12-04T04:39:23.286Z,64.30
2022-12-04T04:41:57.680Z,64.30
2022-12-04T04:44:39.227Z,64.30
2022-12-04T04:47:09.755Z,64.20
2022-12-04T04:49:39.286Z,64.20
2022-12-04T04:52:06.400Z,64.30
2022-12-04T04:54:35.539Z,64.30
2022-12-04T04:57:02.368Z,64.20
2022-12-04T04:59:29.131Z,64.20
2022-12-04T05:01:57.054Z,64.30
2022-12-04T05:04:23.891Z,64.30
2022-12-04T05:06:50.814Z,64.30
2022-12-04T05:09:17.612Z,64.90
2022-12-04T05:11:44.383Z,64.30
2022-12-04T05:14:11.354Z,64.30
2022-12-04T05:16:39.480Z,64.30
2022-12-04T05:19:25.514Z,64.40
2022-12-04T05:21:52.293Z,65.00
2022-12-04T05:24:19.048Z,64.40
2022-12-04T05:26:46.129Z,64.50
2022-12-04T05:29:12.923Z,64.50
2022-12-04T05:31:39.765Z,64.60
2022-12-04T05:34:06.650Z,64.60
2022-12-04T05:36:33.412Z,64.60
2022-12-04T05:39:00.285Z,64.60
2022-12-04T05:41:27.090Z,64.50
2022-12-04T05:43:53.843Z,64.40
2022-12-04T05:46:20.836Z,64.60
2022-12-04T05:48:47.631Z,64.70
2022-12-04T05:51:14.491Z,64.50
2022-12-04T05:53:41.521Z,64.50
2022-12-04T05:56:08.839Z,64.50
2022-12-04T05:58:36.937Z,64.60
2022-12-04T06:01:19.199Z,64.50
2022-12-04T06:03:46.819Z,64.40
2022-12-04T06:06:21.866Z,64.60
2022-12-04T06:08:53.791Z,64.70
2022-12-04T06:11:23.759Z,64.50
2022-12-04T06:13:51.377Z,64.50
2022-12-04T06:16:24.883Z,64.70
2022-12-04T06:19:00.389Z,64.80
2022-12-04T06:21:30.243Z,64.80
2022-12-04T06:23:57.608Z,64.70
2022-12-04T06:26:25.559Z,64.70
2022-12-04T06:28:59.425Z,64.70
2022-12-04T06:31:28.140Z,64.60
2022-12-04T06:33:55.936Z,64.60
2022-12-04T06:36:23.255Z,64.70
2022-12-04T06:38:51.128Z,64.50
2022-12-04T06:41:19.885Z,64.70
2022-12-04T06:43:46.892Z,65.60
2022-12-04T06:46:17.009Z,64.60
2022-12-04T06:48:43.982Z,64.60
2022-12-04T06:51:20.127Z,64.80
2022-12-04T06:53:47.303Z,64.60
2022-12-04T06:56:18.192Z,64.50
2022-12-04T06:58:50.418Z,64.40
2022-12-04T07:01:19.976Z,64.50
2022-12-04T07:03:51.296Z,64.60
2022-12-04T07:06:26.783Z,64.60
2022-12-04T07:08:59.577Z,64.50
2022-12-04T07:11:26.498Z,64.50
2022-12-04T07:13:54.541Z,64.40
2022-12-04T07:16:23.249Z,64.60
2022-12-04T07:18:50.777Z,64.50
2022-12-04T07:21:19.489Z,64.50
2022-12-04T07:23:51.344Z,64.60
2022-12-04T07:26:18.950Z,64.80
2022-12-04T07:28:45.961Z,64.80
2022-12-04T07:31:16.382Z,64.70
2022-12-04T07:33:44.150Z,64.90
2022-12-04T07:36:14.201Z,64.80
2022-12-04T07:38:41.826Z,64.90
2022-12-04T07:41:11.252Z,64.90
2022-12-04T07:43:38.516Z,65.00
2022-12-04T07:46:18.155Z,64.90
2022-12-04T07:48:45.229Z,64.90
2022-12-04T07:51:20.274Z,64.90
2022-12-04T07:53:48.229Z,64.90
2022-12-04T07:56:15.560Z,65.60
2022-12-04T07:58:43.207Z,65.00
2022-12-04T08:01:12.324Z,64.90
2022-12-04T08:03:47.709Z,65.00
2022-12-04T08:06:16.376Z,65.80
2022-12-04T08:08:43.252Z,65.00
2022-12-04T08:11:11.909Z,65.00
2022-12-04T08:13:38.979Z,64.90
2022-12-04T08:16:08.443Z,64.90
2022-12-04T08:18:35.668Z,65.00
2022-12-04T08:21:13.957Z,65.10
2022-12-04T08:23:42.122Z,65.30
2022-12-04T08:26:10.319Z,65.10
2022-12-04T08:28:37.609Z,65.20
2022-12-04T08:31:06.517Z,65.30
2022-12-04T08:33:34.422Z,65.20
2022-12-04T08:36:01.599Z,65.40
2022-12-04T08:38:28.411Z,65.20
2022-12-04T08:40:59.015Z,65.10
2022-12-04T08:43:25.810Z,65.20
2022-12-04T08:46:00.739Z,65.10
2022-12-04T08:48:28.267Z,65.00
2022-12-04T08:50:55.658Z,65.00
2022-12-04T08:53:23.195Z,64.90
2022-12-04T08:55:50.724Z,64.90
2022-12-04T08:58:18.213Z,65.70
2022-12-04T09:00:45.055Z,65.00
2022-12-04T09:03:21.775Z,65.10
2022-12-04T09:05:51.620Z,65.10
2022-12-04T09:08:18.451Z,65.00
2022-12-04T09:10:45.364Z,65.00
2022-12-04T09:13:12.147Z,65.10
2022-12-04T09:15:40.209Z,65.30
2022-12-04T09:18:07.780Z,65.30
2022-12-04T09:20:34.865Z,65.30
2022-12-04T09:23:04.449Z,65.30
2022-12-04T09:25:35.058Z,65.50
2022-12-04T09:28:01.908Z,65.40
2022-12-04T09:30:28.711Z,65.50
2022-12-04T09:32:55.670Z,65.40
2022-12-04T09:35:22.467Z,65.40
2022-12-04T09:37:49.254Z,66.40
2022-12-04T09:40:37.726Z,65.50
2022-12-04T09:43:25.791Z,65.40
2022-12-04T09:45:56.002Z,65.30
2022-12-04T09:48:32.127Z,65.40
2022-12-04T09:51:01.428Z,65.40
2022-12-04T09:53:41.841Z,65.30
2022-12-04T09:56:13.945Z,65.40
2022-12-04T09:58:59.547Z,65.50
2022-12-04T10:01:48.127Z,64.20
2022-12-04T10:04:17.174Z,65.60
2022-12-04T10:06:53.555Z,65.50
2022-12-04T10:09:26.474Z,65.70
2022-12-04T10:12:13.919Z,65.70
2022-12-04T10:15:01.381Z,65.80
2022-12-04T10:17:44.188Z,66.00
2022-12-04T10:20:32.638Z,65.70
2022-12-04T10:23:24.386Z,65.60
2022-12-04T10:25:55.079Z,65.60
2022-12-04T10:28:42.928Z,65.70
2022-12-04T10:31:14.884Z,65.50
2022-12-04T10:33:47.369Z,65.50
2022-12-04T10:36:17.931Z,65.50
2022-12-04T10:38:51.320Z,65.70
2022-12-04T10:41:31.158Z,65.70
2022-12-04T10:43:57.953Z,65.60
2022-12-04T10:46:26.624Z,65.50
2022-12-04T10:49:09.493Z,65.50
2022-12-04T10:51:40.198Z,65.50
2022-12-04T10:54:20.025Z,65.80
2022-12-04T10:56:58.816Z,66.70
2022-12-04T10:59:26.464Z,66.10
2022-12-04T11:02:12.163Z,65.90
2022-12-04T11:04:41.962Z,66.00
2022-12-04T11:07:19.175Z,65.90
2022-12-04T11:09:56.190Z,65.80
2022-12-04T11:12:24.164Z,65.60
2022-12-04T11:15:20.295Z,65.60
2022-12-04T11:17:47.095Z,65.50
2022-12-04T11:20:23.002Z,65.60
2022-12-04T11:22:56.964Z,65.50
2022-12-04T11:25:27.573Z,65.40
2022-12-04T11:27:56.767Z,65.40
2022-12-04T11:30:36.468Z,65.40
2022-12-04T11:33:07.320Z,65.60
2022-12-04T11:35:34.251Z,65.60
2022-12-04T11:38:14.583Z,65.60
2022-12-04T11:41:22.416Z,65.50
2022-12-04T11:43:52.133Z,65.40
2022-12-04T11:46:28.156Z,65.30
2022-12-04T11:48:55.160Z,65.40
2022-12-04T11:51:47.871Z,65.70
2022-12-04T11:54:37.759Z,65.60
2022-12-04T11:57:39.790Z,65.60
2022-12-04T12:00:09.894Z,65.60
2022-12-04T12:02:56.602Z,65.60
2022-12-04T12:05:23.485Z,65.80
2022-12-04T12:08:15.280Z,65.90
2022-12-04T12:10:53.887Z,65.90
2022-12-04T12:13:36.160Z,65.90
2022-12-04T12:16:25.987Z,65.90
2022-12-04T12:19:24.001Z,65.90
2022-12-04T12:21:50.751Z,65.90
2022-12-04T12:24:29.073Z,65.90
2022-12-04T12:27:20.604Z,66.20
2022-12-04T12:30:14.351Z,66.10
2022-12-04T12:33:24.814Z,66.10
2022-12-04T12:36:03.213Z,66.40
2022-12-04T12:38:58.832Z,67.00
2022-12-04T12:41:32.301Z,66.40
2022-12-04T12:44:16.834Z,66.30
2022-12-04T12:46:53.290Z,66.40
2022-12-04T12:49:38.824Z,66.40
2022-12-04T12:52:14.636Z,66.40
2022-12-04T12:54:48.259Z,66.60
2022-12-04T12:57:34.647Z,66.60
2022-12-04T13:00:13.171Z,66.60
2022-12-04T13:02:49.255Z,67.30
2022-12-04T13:05:19.093Z,66.60
2022-12-04T13:08:11.865Z,66.60
2022-12-04T13:10:45.927Z,66.40
2022-12-04T13:13:22.293Z,66.40
2022-12-04T13:15:53.994Z,66.40
2022-12-04T13:18:32.561Z,66.40
2022-12-04T13:21:03.439Z,66.50
2022-12-04T13:24:07.387Z,66.20
2022-12-04T13:26:34.142Z,66.20
2022-12-04T13:29:16.972Z,66.20
2022-12-04T13:32:25.582Z,66.30
2022-12-04T13:35:02.493Z,66.40
2022-12-04T13:38:13.706Z,66.40
2022-12-04T13:40:42.454Z,66.30
2022-12-04T13:43:20.916Z,66.20
2022-12-04T13:45:49.972Z,66.30
2022-12-04T13:48:36.842Z,66.40
2022-12-04T13:51:07.971Z,68.70
2022-12-04T13:53:37.766Z,66.50
2022-12-04T13:56:08.825Z,66.50
2022-12-04T13:58:37.654Z,66.50
2022-12-04T14:01:28.519Z,66.50
2022-12-04T14:03:57.449Z,66.70
2022-12-04T14:06:39.541Z,66.40
2022-12-04T14:09:19.944Z,66.30
2022-12-04T14:11:51.082Z,66.20
2022-12-04T14:14:26.613Z,66.20
2022-12-04T14:16:54.437Z,66.10
2022-12-04T14:19:36.922Z,66.00
2022-12-04T14:22:04.345Z,65.90
2022-12-04T14:24:37.529Z,66.00
2022-12-04T14:27:42.544Z,65.90
2022-12-04T14:30:20.475Z,66.10
2022-12-04T14:33:08.862Z,66.20
2022-12-04T14:35:45.721Z,66.20
2022-12-04T14:38:19.246Z,66.10
2022-12-04T14:40:49.647Z,66.10
2022-12-04T14:43:22.372Z,66.00
2022-12-04T14:45:58.520Z,66.00
2022-12-04T14:48:28.390Z,65.90
2022-12-04T14:51:17.032Z,65.90
2022-12-04T14:54:03.447Z,65.80
2022-12-04T14:57:06.604Z,65.80
2022-12-04T14:59:53.864Z,65.70
2022-12-04T15:02:33.695Z,65.60
2022-12-04T15:05:02.055Z,66.00
2022-12-04T15:07:31.752Z,65.70
2022-12-04T15:10:20.347Z,65.70
2022-12-04T15:12:53.853Z,65.80
2022-12-04T15:15:24.796Z,65.70
2022-12-04T15:18:00.365Z,66.00
2022-12-04T15:20:30.528Z,65.60
2022-12-04T15:23:02.170Z,65.50
2022-12-04T15:25:35.025Z,65.70
2022-12-04T15:28:28.991Z,65.80
2022-12-04T15:30:57.863Z,65.80
2022-12-04T15:33:30.492Z,65.70
2022-12-04T15:36:02.511Z,65.80
2022-12-04T15:38:29.627Z,65.80
2022-12-04T15:41:00.869Z,65.70
2022-12-04T15:43:32.612Z,65.80
2022-12-04T15:46:00.078Z,65.90
2022-12-04T15:48:30.396Z,65.90
2022-12-04T15:50:59.588Z,65.70
2022-12-04T15:53:29.921Z,65.70
2022-12-04T15:56:01.255Z,65.80
2022-12-04T15:58:35.320Z,65.80
2022-12-04T16:01:10.646Z,65.70
2022-12-04T16:03:43.702Z,65.70
2022-12-04T16:06:13.552Z,65.70
2022-12-04T16:08:42.194Z,65.70
2022-12-04T16:11:18.564Z,65.60
2022-12-04T16:13:45.487Z,65.60
2022-12-04T16:16:20.139Z,65.60
2022-12-04T16:18:47.591Z,65.70
2022-12-04T16:21:21.805Z,65.70
2022-12-04T16:23:49.839Z,65.90
2022-12-04T16:26:19.535Z,65.70
2022-12-04T16:28:47.613Z,65.80
2022-12-04T16:31:16.767Z,65.80
2022-12-04T16:33:43.566Z,65.70
2022-12-04T16:36:11.561Z,65.80
2022-12-04T16:38:38.453Z,65.70
2022-12-04T16:41:05.879Z,65.70
2022-12-04T16:43:32.757Z,65.80
2022-12-04T16:46:01.294Z,65.90
2022-12-04T16:48:29.946Z,65.90
2022-12-04T16:50:56.826Z,65.90
2022-12-04T16:53:23.657Z,65.90
2022-12-04T16:55:52.212Z,66.70
2022-12-04T16:58:20.227Z,66.10
2022-12-04T17:00:53.459Z,66.00
2022-12-04T17:03:38.192Z,66.10
2022-12-04T17:06:05.026Z,66.20
2022-12-04T17:08:31.938Z,66.20
2022-12-04T17:10:58.707Z,66.40
2022-12-04T17:13:25.546Z,66.30
2022-12-04T17:15:53.404Z,66.50
2022-12-04T17:18:21.544Z,66.50
2022-12-04T17:20:48.847Z,66.60
2022-12-04T17:23:16.204Z,66.50
2022-12-04T17:25:42.966Z,66.40
2022-12-04T17:28:09.810Z,66.70
2022-12-04T17:30:36.762Z,66.50
2022-12-04T17:33:04.919Z,66.50
2022-12-04T17:35:31.821Z,66.50
2022-12-04T17:38:05.440Z,66.60
2022-12-04T17:40:32.997Z,66.60
2022-12-04T17:42:59.980Z,66.60
2022-12-04T17:45:26.926Z,66.70
2022-12-04T17:47:53.853Z,66.60
2022-12-04T17:50:20.800Z,66.70
2022-12-04T17:52:47.648Z,66.70
2022-12-04T17:55:14.453Z,66.80
2022-12-04T17:57:41.320Z,66.80
2022-12-04T18:00:09.107Z,67.00
2022-12-04T18:02:41.581Z,67.20
2022-12-04T18:05:09.592Z,67.20
2022-12-04T18:07:36.611Z,67.30
2022-12-04T18:10:03.754Z,67.40
2022-12-04T18:12:30.663Z,67.40
2022-12-04T18:14:57.598Z,68.20
2022-12-04T18:17:24.500Z,67.40
2022-12-04T18:19:51.513Z,67.50
2022-12-04T18:22:18.434Z,67.50
2022-12-04T18:24:45.247Z,67.40
2022-12-04T18:27:12.113Z,67.50
2022-12-04T18:29:38.951Z,67.40
2022-12-04T18:32:05.966Z,67.30
2022-12-04T18:34:33.059Z,67.40
2022-12-04T18:36:59.915Z,67.40
2022-12-04T18:39:27.087Z,67.50
2022-12-04T18:41:57.376Z,67.50
2022-12-04T18:44:24.882Z,67.50
2022-12-04T18:46:53.095Z,67.40
2022-12-04T18:49:19.919Z,67.60
2022-12-04T18:51:49.839Z,67.60
2022-12-04T18:54:22.723Z,67.70
2022-12-04T18:56:50.292Z,67.70
2022-12-04T18:59:20.124Z,67.60
2022-12-04T19:01:49.748Z,67.70
2022-12-04T19:04:18.556Z,67.70
2022-12-04T19:06:48.202Z,67.70
2022-12-04T19:09:18.495Z,67.80
2022-12-04T19:11:46.092Z,67.90
2022-12-04T19:14:21.013Z,67.80
2022-12-04T19:16:49.650Z,67.80
2022-12-04T19:19:17.005Z,67.70
2022-12-04T19:21:44.581Z,67.60
2022-12-04T19:24:12.185Z,67.80
2022-12-04T19:26:39.732Z,67.70
2022-12-04T19:29:07.464Z,67.80
2022-12-04T19:31:37.550Z,67.90
2022-12-04T19:34:06.378Z,67.90
2022-12-04T19:36:35.048Z,67.80
2022-12-04T19:39:04.248Z,67.90
2022-12-04T19:41:34.461Z,67.80
2022-12-04T19:44:03.400Z,67.80
2022-12-04T19:46:36.689Z,67.90
2022-12-04T19:49:05.975Z,67.80
2022-12-04T19:51:34.465Z,67.90
2022-12-04T19:54:02.180Z,68.00
2022-12-04T19:56:30.836Z,68.00
2022-12-04T19:59:00.365Z,68.00
2022-12-04T20:01:32.377Z,68.00
2022-12-04T20:04:05.358Z,68.00
2022-12-04T20:06:37.969Z,68.00
2022-12-04T20:09:07.833Z,68.10
2022-12-04T20:11:36.481Z,68.10
2022-12-04T20:14:05.202Z,68.10
2022-12-04T20:16:34.328Z,68.10
2022-12-04T20:19:03.538Z,68.20
2022-12-04T20:21:31.910Z,68.20
2022-12-04T20:24:02.433Z,68.20
2022-12-04T20:26:35.779Z,68.20
2022-12-04T20:29:03.357Z,68.90
2022-12-04T20:31:33.475Z,69.00
2022-12-04T20:34:02.738Z,68.20
2022-12-04T20:36:30.852Z,68.10
2022-12-04T20:38:59.189Z,68.30
2022-12-04T20:41:28.457Z,68.20
2022-12-04T20:43:56.412Z,68.40
2022-12-04T20:46:31.522Z,68.40
2022-12-04T20:49:01.048Z,68.50
2022-12-04T20:51:32.563Z,68.40
2022-12-04T20:54:00.764Z,68.30
2022-12-04T20:56:30.903Z,68.20
2022-12-04T20:59:00.050Z,68.20
2022-12-04T21:01:28.224Z,68.30
2022-12-04T21:03:55.990Z,68.50
2022-12-04T21:06:32.636Z,68.60
2022-12-04T21:09:05.651Z,68.50
2022-12-04T21:11:35.609Z,68.50
2022-12-04T21:14:23.251Z,68.50
2022-12-04T21:16:50.502Z,68.50
2022-12-04T21:19:19.841Z,68.50
2022-12-04T21:21:47.451Z,68.50
2022-12-04T21:24:17.663Z,68.50
2022-12-04T21:26:45.398Z,68.50
2022-12-04T21:29:12.192Z,68.40
2022-12-04T21:31:39.822Z,68.50
2022-12-04T21:34:08.386Z,68.40
2022-12-04T21:36:35.695Z,67.20
2022-12-04T21:39:02.882Z,68.40
2022-12-04T21:41:48.182Z,68.40
2022-12-04T21:44:18.217Z,68.50
2022-12-04T21:46:46.183Z,68.50
2022-12-04T21:49:13.985Z,68.40
2022-12-04T21:51:56.935Z,68.50
2022-12-04T21:54:25.242Z,68.40
2022-12-04T21:56:52.102Z,68.30
2022-12-04T21:59:18.894Z,68.30
2022-12-04T22:01:45.980Z,68.30
2022-12-04T22:04:12.911Z,68.30
2022-12-04T22:06:40.054Z,68.30
2022-12-04T22:09:09.079Z,68.30
2022-12-04T22:11:36.514Z,68.40
2022-12-04T22:14:03.743Z,68.30
2022-12-04T22:16:31.665Z,68.40
2022-12-04T22:19:00.027Z,68.30
2022-12-04T22:21:28.351Z,68.30
2022-12-04T22:24:00.355Z,68.30
2022-12-04T22:26:28.635Z,68.40
2022-12-04T22:28:56.080Z,68.40
2022-12-04T22:31:24.867Z,68.50
2022-12-04T22:33:54.063Z,68.40
2022-12-04T22:36:23.537Z,68.40
2022-12-04T22:39:09.894Z,68.40
2022-12-04T22:41:37.753Z,68.40
2022-12-04T22:44:04.751Z,70.40
2022-12-04T22:46:31.987Z,68.40
2022-12-04T22:48:59.544Z,68.30
2022-12-04T22:51:27.291Z,68.40
2022-12-04T22:53:57.661Z,68.40
2022-12-04T22:56:29.738Z,68.40
2022-12-04T22:58:57.972Z,68.50
2022-12-04T23:01:30.409Z,70.20
2022-12-04T23:03:58.198Z,68.60
2022-12-04T23:06:27.198Z,68.50
2022-12-04T23:08:56.098Z,68.60
2022-12-04T23:11:24.931Z,68.60
2022-12-04T23:13:54.215Z,68.50
2022-12-04T23:16:22.763Z,68.60
2022-12-04T23:18:49.779Z,68.80
2022-12-04T23:21:18.040Z,68.70
2022-12-04T23:23:46.493Z,68.80
2022-12-04T23:26:16.373Z,68.80
2022-12-04T23:28:43.581Z,66.60
2022-12-04T23:31:11.318Z,68.90
2022-12-04T23:33:39.327Z,68.90
2022-12-04T23:36:08.907Z,68.90
2022-12-04T23:38:37.429Z,68.80
2022-12-04T23:41:07.354Z,68.80
2022-12-04T23:43:34.999Z,68.70
2022-12-04T23:46:05.900Z,69.00
2022-12-04T23:48:37.892Z,68.70
2022-12-04T23:51:04.734Z,68.70
2022-12-04T23:53:31.535Z,68.70
2022-12-04T23:56:08.635Z,68.70
2022-12-04T23:58:36.369Z,69.10
